Time;durP1;ratioP1;P1;durP2;ratioP2;P2;SDS_P1;SDS_P2;PMS_P1;PMS_P2;Temp;Humidity;BMP_temperature;BMP_pressure;BME280_temperature;BME280_humidity;BME280_pressure;Samples;Min_cycle;Max_cycle;Signal;HPM_P1;HPM_P2
2021/04/27 00:00:59;;;;;;;26.08;16.15;;;1.40;95.70;;;;;;5052077;28;20021;-78
2021/04/27 00:03:25;;;;;;;25.42;13.63;;;1.30;95.70;;;;;;5052207;28;20036;-78
2021/04/27 00:05:51;;;;;;;22.08;13.20;;;1.30;95.70;;;;;;5053522;28;20017;-78
2021/04/27 00:08:17;;;;;;;21.73;14.10;;;1.30;95.70;;;;;;5053379;28;20025;-78
2021/04/27 00:10:43;;;;;;;24.23;13.27;;;1.30;95.80;;;;;;5052120;28;20029;-78
2021/04/27 00:13:09;;;;;;;19.77;11.68;;;1.20;95.70;;;;;;5052135;28;20117;-78
2021/04/27 00:15:35;;;;;;;23.13;13.13;;;1.20;95.70;;;;;;5053420;28;20429;-78
2021/04/27 00:18:02;;;;;;;18.52;11.60;;;1.20;95.70;;;;;;5057246;28;20049;-78
2021/04/27 00:20:27;;;;;;;19.15;11.75;;;1.20;95.90;;;;;;5055839;28;20040;-78
2021/04/27 00:22:54;;;;;;;20.45;12.48;;;1.10;95.60;;;;;;5057499;28;20021;-78
2021/04/27 00:25:21;;;;;;;16.55;11.93;;;1.10;95.60;;;;;;5056883;28;20025;-78
2021/04/27 00:27:49;;;;;;;19.33;12.02;;;1.00;95.80;;;;;;5056154;28;20064;-78
2021/04/27 00:30:16;;;;;;;17.70;12.15;;;1.00;95.70;;;;;;5057067;28;20378;-78
2021/04/27 00:32:43;;;;;;;17.00;11.07;;;1.00;95.70;;;;;;5055699;28;20028;-78
2021/04/27 00:35:10;;;;;;;22.50;13.48;;;1.00;95.70;;;;;;5055732;28;20116;-78
2021/04/27 00:37:35;;;;;;;23.20;14.23;;;0.90;95.80;;;;;;5056867;28;20096;-78
2021/04/27 00:40:01;;;;;;;22.10;13.13;;;0.80;96.10;;;;;;5055303;28;20055;-78
2021/04/27 00:42:32;;;;;;;20.27;13.32;;;0.80;96.20;;;;;;5055324;28;20024;-78
2021/04/27 00:44:59;;;;;;;20.83;12.35;;;0.70;96.00;;;;;;5055514;28;20025;-78
2021/04/27 00:47:25;;;;;;;25.75;14.50;;;0.80;96.00;;;;;;5056731;28;20013;-78
2021/04/27 00:49:53;;;;;;;23.15;13.90;;;0.70;96.10;;;;;;5055289;28;20053;-78
2021/04/27 00:52:20;;;;;;;19.30;12.55;;;0.70;96.00;;;;;;5055397;28;20033;-78
2021/04/27 00:54:45;;;;;;;21.38;11.93;;;0.70;96.00;;;;;;5056485;28;20036;-78
2021/04/27 00:57:11;;;;;;;25.75;14.27;;;0.70;95.90;;;;;;5055066;28;20491;-78
2021/04/27 00:59:37;;;;;;;20.08;12.77;;;0.70;95.90;;;;;;5055225;28;20036;-78
2021/04/27 01:02:04;;;;;;;22.40;13.55;;;0.60;96.00;;;;;;5055195;28;20063;-78
2021/04/27 01:04:30;;;;;;;24.48;14.90;;;0.60;95.90;;;;;;5055197;28;20020;-78
2021/04/27 01:06:56;;;;;;;23.05;13.20;;;0.60;95.90;;;;;;5055189;28;20707;-78
2021/04/27 01:09:46;;;;;;;22.90;13.57;;;0.70;96.00;;;;;;5054984;28;20116;-78
2021/04/27 01:12:27;;;;;;;26.93;14.87;;;0.50;96.00;;;;;;5056576;28;20024;-78
2021/04/27 01:15:04;;;;;;;21.02;13.00;;;0.50;96.10;;;;;;5055002;28;20108;-78
2021/04/27 01:17:31;;;;;;;25.50;13.18;;;0.50;96.20;;;;;;5055901;28;20025;-78
2021/04/27 01:20:04;;;;;;;23.35;14.32;;;0.50;96.20;;;;;;5054716;28;20578;-78
2021/04/27 01:22:52;;;;;;;20.58;12.90;;;0.40;96.20;;;;;;5054798;28;20025;-78
2021/04/27 01:25:30;;;;;;;25.10;13.48;;;0.40;96.20;;;;;;5035749;28;20075;-78
2021/04/27 01:27:55;;;;;;;21.15;12.13;;;0.40;96.30;;;;;;5055681;28;20048;-78
2021/04/27 01:30:22;;;;;;;20.50;12.63;;;0.40;96.20;;;;;;5054620;28;20493;-78
2021/04/27 01:32:48;;;;;;;20.80;12.48;;;0.30;96.50;;;;;;5054377;28;20033;-78
2021/04/27 01:35:14;;;;;;;19.45;12.20;;;0.30;96.10;;;;;;5056169;28;20067;-78
2021/04/27 01:37:40;;;;;;;19.10;11.85;;;0.30;96.30;;;;;;5055447;28;20017;-78
2021/04/27 01:40:06;;;;;;;20.70;12.82;;;0.30;96.20;;;;;;5055502;28;20028;-78
2021/04/27 01:42:33;;;;;;;20.77;11.50;;;0.20;96.30;;;;;;5054654;28;20074;-78
2021/04/27 01:44:59;;;;;;;19.48;12.52;;;0.20;96.20;;;;;;5055673;28;20032;-79
2021/04/27 01:47:25;;;;;;;18.63;12.52;;;0.20;96.40;;;;;;5054400;28;20025;-78
2021/04/27 01:49:52;;;;;;;19.77;11.65;;;0.20;96.50;;;;;;5054143;28;20491;-79
2021/04/27 01:52:18;;;;;;;23.60;14.10;;;0.20;96.50;;;;;;5054656;28;20128;-78
2021/04/27 01:54:44;;;;;;;21.88;13.18;;;0.20;96.60;;;;;;5054185;28;20491;-78
2021/04/27 01:57:09;;;;;;;26.25;13.73;;;0.10;96.60;;;;;;5054244;28;20036;-78
2021/04/27 01:59:35;;;;;;;22.85;13.38;;;0.10;96.50;;;;;;5055319;28;20043;-78
2021/04/27 02:02:01;;;;;;;24.60;13.57;;;0.10;96.50;;;;;;5055429;28;20021;-78
2021/04/27 02:04:28;;;;;;;24.50;14.27;;;0.10;96.50;;;;;;5055296;28;20029;-78
2021/04/27 02:06:55;;;;;;;24.58;13.70;;;0.10;96.60;;;;;;5054973;28;20459;-78
2021/04/27 02:09:23;;;;;;;25.75;13.60;;;0.00;96.60;;;;;;5055174;28;20032;-78
2021/04/27 02:11:51;;;;;;;29.77;15.55;;;0.00;96.50;;;;;;5053918;28;20056;-78
2021/04/27 02:14:19;;;;;;;30.20;16.20;;;0.00;96.70;;;;;;5055133;28;20532;-78
2021/04/27 02:17:13;;;;;;;25.92;15.73;;;0.00;96.80;;;;;;5054417;28;20031;-78
2021/04/27 02:19:40;;;;;;;28.55;16.40;;;0.00;96.80;;;;;;5054463;28;20023;-78
2021/04/27 02:22:07;;;;;;;27.30;15.25;;;-0.10;96.80;;;;;;5053262;28;20021;-78
2021/04/27 02:24:37;;;;;;;28.08;16.42;;;-0.10;96.90;;;;;;5054507;28;20375;-78
2021/04/27 02:27:03;;;;;;;30.52;17.95;;;-0.10;96.80;;;;;;5054882;28;20025;-78
2021/04/27 02:29:30;;;;;;;25.08;14.77;;;-0.10;97.10;;;;;;5054741;28;20100;-78
2021/04/27 02:31:58;;;;;;;27.38;16.08;;;-0.10;96.90;;;;;;5053637;28;20048;-77
2021/04/27 02:34:25;;;;;;;22.13;15.45;;;-0.10;97.20;;;;;;5053670;28;20028;-78
2021/04/27 02:36:51;;;;;;;24.90;15.90;;;-0.10;97.20;;;;;;5053903;28;20078;-78
2021/04/27 02:39:18;;;;;;;23.27;14.38;;;-0.10;97.20;;;;;;5054371;28;20374;-78
2021/04/27 02:41:44;;;;;;;22.40;14.85;;;0.00;97.10;;;;;;5053126;28;20028;-78
2021/04/27 02:44:11;;;;;;;27.23;16.23;;;-0.10;97.20;;;;;;5052364;28;20114;-78
2021/04/27 02:46:37;;;;;;;24.00;15.40;;;0.00;97.40;;;;;;5054477;28;20024;-78
2021/04/27 02:49:04;;;;;;;27.33;15.43;;;0.00;97.60;;;;;;5051072;28;20041;-78
2021/04/27 02:51:30;;;;;;;22.25;14.50;;;0.00;97.60;;;;;;5052332;28;20029;-78
2021/04/27 02:53:56;;;;;;;20.73;14.48;;;0.20;97.20;;;;;;5051884;28;20024;-78
2021/04/27 02:56:22;;;;;;;21.92;13.32;;;0.30;96.90;;;;;;5054108;28;20021;-78
2021/04/27 02:58:48;;;;;;;22.20;14.73;;;0.50;96.90;;;;;;5051617;28;20024;-78
2021/04/27 03:01:14;;;;;;;23.23;15.52;;;0.50;97.00;;;;;;5054040;28;20036;-78
2021/04/27 03:03:41;;;;;;;22.58;15.65;;;0.60;97.20;;;;;;5053882;28;20028;-78
2021/04/27 03:06:07;;;;;;;22.98;15.10;;;0.60;97.20;;;;;;5052809;28;20021;-78
2021/04/27 03:08:33;;;;;;;18.75;13.13;;;0.60;97.20;;;;;;5053647;28;20017;-78
2021/04/27 03:10:58;;;;;;;20.85;14.30;;;0.60;97.00;;;;;;5052635;28;20094;-78
2021/04/27 03:13:24;;;;;;;22.20;13.57;;;0.60;97.00;;;;;;5051735;28;20024;-78
2021/04/27 03:15:50;;;;;;;21.35;13.50;;;0.60;97.10;;;;;;5053851;28;20475;-77
2021/04/27 03:18:15;;;;;;;19.80;11.93;;;0.70;97.10;;;;;;5048519;28;20022;-78
2021/04/27 03:20:43;;;;;;;32.60;18.27;;;0.70;96.90;;;;;;5043817;28;20132;-78
2021/04/27 03:23:10;;;;;;;35.33;19.88;;;0.90;96.80;;;;;;5047396;28;20029;-78
2021/04/27 03:25:36;;;;;;;30.88;19.60;;;1.00;96.70;;;;;;5053601;28;20378;-78
2021/04/27 03:28:07;;;;;;;30.67;16.17;;;1.10;96.50;;;;;;5052234;28;20021;-78
2021/04/27 03:30:33;;;;;;;23.02;13.63;;;1.30;96.30;;;;;;5053421;28;20017;-78
2021/04/27 03:33:03;;;;;;;19.60;12.65;;;1.50;96.30;;;;;;5052072;28;20035;-78
2021/04/27 03:35:28;;;;;;;16.25;11.23;;;1.70;96.40;;;;;;5052400;28;20115;-78
2021/04/27 03:37:54;;;;;;;17.63;11.02;;;1.80;96.10;;;;;;5053234;28;20100;-78
2021/04/27 03:40:20;;;;;;;18.50;11.60;;;2.00;95.90;;;;;;5052937;28;20038;-78
2021/04/27 03:42:46;;;;;;;18.05;11.63;;;2.10;95.70;;;;;;5051885;28;20017;-77
2021/04/27 03:45:15;;;;;;;20.02;13.02;;;2.20;95.50;;;;;;5052014;28;20028;-77
2021/04/27 03:47:42;;;;;;;24.10;14.80;;;2.30;95.20;;;;;;5051871;28;20071;-77
2021/04/27 03:50:12;;;;;;;19.33;13.43;;;2.40;95.10;;;;;;5052601;28;20053;-76
2021/04/27 03:52:38;;;;;;;27.33;15.65;;;2.50;94.90;;;;;;5052310;28;20029;-77
2021/04/27 03:55:04;;;;;;;25.95;14.88;;;2.50;94.80;;;;;;5056520;28;20124;-75
2021/04/27 03:57:30;;;;;;;25.65;15.60;;;2.60;94.70;;;;;;5053218;28;20071;-77
2021/04/27 03:59:55;;;;;;;33.95;18.70;;;2.60;94.70;;;;;;5051734;28;20036;-78
2021/04/27 04:02:21;;;;;;;31.88;17.60;;;2.70;94.50;;;;;;5053631;28;20064;-78
2021/04/27 04:04:47;;;;;;;27.67;15.95;;;2.70;94.50;;;;;;5052643;28;20471;-77
2021/04/27 04:07:12;;;;;;;27.92;14.95;;;2.70;94.40;;;;;;5051954;28;20036;-77
2021/04/27 04:09:38;;;;;;;24.92;13.43;;;2.80;94.40;;;;;;5053803;28;20029;-77
2021/04/27 04:12:07;;;;;;;28.08;15.43;;;2.80;94.40;;;;;;5053139;28;20025;-77
2021/04/27 04:14:33;;;;;;;41.13;21.42;;;2.80;94.30;;;;;;5049476;28;20536;-76
2021/04/27 04:16:59;;;;;;;45.08;22.80;;;2.80;94.60;;;;;;5052599;28;20052;-70
2021/04/27 04:19:24;;;;;;;27.35;14.07;;;2.90;94.30;;;;;;5052741;28;20067;-70
2021/04/27 04:21:50;;;;;;;23.25;13.38;;;3.00;94.20;;;;;;5052934;28;20025;-70
2021/04/27 04:24:15;;;;;;;21.92;12.88;;;3.10;94.00;;;;;;5052701;28;20463;-70
2021/04/27 04:26:41;;;;;;;20.83;12.30;;;3.10;93.90;;;;;;5051834;28;20486;-70
2021/04/27 04:29:07;;;;;;;20.63;12.23;;;3.20;93.70;;;;;;5052231;28;20037;-70
2021/04/27 04:31:32;;;;;;;26.13;11.85;;;3.30;93.70;;;;;;5053142;28;20118;-76
2021/04/27 04:33:59;;;;;;;31.58;15.15;;;3.40;93.70;;;;;;5052772;28;20029;-76
2021/04/27 04:36:25;;;;;;;33.70;17.35;;;3.30;93.80;;;;;;5052450;28;20066;-77
2021/04/27 04:38:51;;;;;;;31.95;16.25;;;3.40;93.70;;;;;;5052195;28;20045;-77
2021/04/27 04:41:16;;;;;;;31.60;17.75;;;3.50;93.70;;;;;;5052700;28;20105;-79
2021/04/27 04:43:42;;;;;;;28.83;15.07;;;3.60;93.50;;;;;;5052898;28;20021;-79
2021/04/27 04:46:08;;;;;;;22.27;13.07;;;3.70;93.20;;;;;;5051496;28;20021;-80
2021/04/27 04:48:34;;;;;;;26.23;13.95;;;3.80;93.00;;;;;;5050923;28;20523;-78
2021/04/27 04:51:00;;;;;;;25.48;13.95;;;4.00;92.90;;;;;;5052444;28;20033;-78
2021/04/27 04:53:25;;;;;;;21.73;12.50;;;4.10;92.90;;;;;;5052226;28;20061;-79
2021/04/27 04:55:51;;;;;;;22.80;12.35;;;4.30;92.40;;;;;;5050806;28;20040;-79
2021/04/27 04:58:17;;;;;;;23.27;13.55;;;4.40;92.50;;;;;;5051311;28;20033;-78
2021/04/27 05:00:42;;;;;;;18.77;11.55;;;4.50;92.10;;;;;;5051715;28;20028;-77
2021/04/27 05:03:08;;;;;;;18.90;10.48;;;4.60;91.90;;;;;;5052122;28;20054;-78
2021/04/27 05:05:34;;;;;;;14.05;8.85;;;4.60;91.90;;;;;;5055028;28;20458;-80
2021/04/27 05:08:08;;;;;;;13.50;7.90;;;4.80;91.80;;;;;;5056441;28;20360;-80
2021/04/27 05:10:34;;;;;;;11.32;7.47;;;4.90;91.50;;;;;;5055155;28;20036;-80
2021/04/27 05:13:00;;;;;;;8.52;6.10;;;5.00;90.90;;;;;;5054707;28;20037;-71
2021/04/27 05:15:25;;;;;;;9.43;6.03;;;5.10;90.00;;;;;;5054405;28;20059;-71
2021/04/27 05:17:51;;;;;;;10.07;6.00;;;5.20;90.20;;;;;;5054432;28;20029;-71
2021/04/27 05:20:17;;;;;;;8.00;5.40;;;5.30;89.80;;;;;;5054055;28;20540;-71
2021/04/27 05:22:45;;;;;;;8.98;5.97;;;5.40;89.50;;;;;;5054394;28;20021;-71
2021/04/27 05:25:12;;;;;;;7.22;5.57;;;5.50;88.20;;;;;;5054560;28;20017;-73
2021/04/27 05:27:38;;;;;;;9.20;6.53;;;5.60;88.00;;;;;;5054558;28;20032;-73
2021/04/27 05:30:04;;;;;;;9.05;6.20;;;5.70;88.20;;;;;;5054764;28;20021;-73
2021/04/27 05:32:30;;;;;;;8.20;5.97;;;5.80;86.90;;;;;;5053976;28;20100;-74
2021/04/27 05:34:56;;;;;;;8.82;6.25;;;5.90;84.60;;;;;;5053226;28;20096;-73
2021/04/27 05:37:22;;;;;;;7.40;5.25;;;5.90;83.90;;;;;;5052941;28;20048;-74
2021/04/27 05:39:47;;;;;;;7.28;5.60;;;6.00;84.10;;;;;;5054272;28;20590;-75
2021/04/27 05:42:13;;;;;;;7.07;5.70;;;6.10;83.50;;;;;;5054454;28;20025;-74
2021/04/27 05:44:38;;;;;;;8.02;5.30;;;6.10;82.80;;;;;;5055428;28;20025;-74
2021/04/27 05:47:04;;;;;;;7.53;5.68;;;6.20;83.10;;;;;;5055529;28;20021;-73
2021/04/27 05:49:30;;;;;;;9.77;6.10;;;6.30;83.20;;;;;;5054997;28;20084;-74
2021/04/27 05:51:56;;;;;;;9.00;5.47;;;6.30;82.10;;;;;;5055355;28;20517;-74
2021/04/27 05:54:21;;;;;;;8.95;5.40;;;6.40;82.50;;;;;;5054778;28;20028;-74
2021/04/27 05:56:47;;;;;;;11.60;5.72;;;6.50;83.20;;;;;;5055192;28;20033;-74
2021/04/27 05:59:13;;;;;;;8.13;4.90;;;6.60;82.50;;;;;;5055121;28;20064;-74
2021/04/27 06:01:39;;;;;;;7.13;5.60;;;6.70;82.10;;;;;;5053212;28;20025;-74
2021/04/27 06:04:06;;;;;;;7.68;5.63;;;6.80;81.50;;;;;;5053618;28;20028;-74
2021/04/27 06:06:35;;;;;;;9.40;5.35;;;6.80;79.80;;;;;;5054731;28;20025;-74
2021/04/27 06:09:02;;;;;;;8.77;5.78;;;6.90;81.10;;;;;;5054417;28;20062;-73
2021/04/27 06:11:28;;;;;;;11.25;5.45;;;7.00;81.90;;;;;;5053646;28;20462;-74
2021/04/27 06:13:54;;;;;;;10.18;6.47;;;7.00;80.00;;;;;;5055094;28;20028;-72
2021/04/27 06:16:19;;;;;;;10.05;7.20;;;7.20;80.50;;;;;;5052609;28;20505;-72
2021/04/27 06:18:45;;;;;;;9.95;6.03;;;7.20;80.70;;;;;;5054178;28;20025;-72
2021/04/27 06:21:12;;;;;;;7.72;5.82;;;7.30;79.50;;;;;;5052642;28;20029;-72
2021/04/27 06:23:38;;;;;;;16.33;12.15;;;7.40;78.90;;;;;;5052689;28;20115;-72
2021/04/27 06:26:03;;;;;;;8.60;5.40;;;7.30;77.50;;;;;;5052469;28;20056;-72
2021/04/27 06:28:29;;;;;;;10.25;5.70;;;7.30;78.90;;;;;;5053924;28;20493;-72
2021/04/27 06:30:55;;;;;;;6.55;5.22;;;7.40;78.30;;;;;;5053577;28;20028;-72
2021/04/27 06:33:20;;;;;;;64.25;27.58;;;7.40;79.00;;;;;;5053516;28;20422;-72
2021/04/27 06:35:46;;;;;;;31.23;15.00;;;7.40;77.80;;;;;;5053520;28;20489;-72
2021/04/27 06:38:17;;;;;;;34.45;17.52;;;7.40;78.00;;;;;;5052285;28;20021;-72
2021/04/27 06:40:49;;;;;;;54.10;23.00;;;7.50;77.80;;;;;;5052610;28;20021;-72
2021/04/27 06:43:15;;;;;;;31.83;18.27;;;7.60;78.30;;;;;;5051965;28;20025;-72
2021/04/27 06:45:40;;;;;;;8.20;5.57;;;7.60;77.70;;;;;;5050468;28;20035;-73
2021/04/27 06:48:09;;;;;;;8.35;5.32;;;7.80;76.20;;;;;;5050913;28;20025;-73
2021/04/27 06:50:38;;;;;;;6.70;4.80;;;7.80;75.60;;;;;;5050043;28;20053;-74
2021/04/27 06:53:04;;;;;;;11.85;5.32;;;7.80;75.70;;;;;;5051802;28;20033;-73
2021/04/27 06:55:30;;;;;;;6.55;5.45;;;7.80;75.60;;;;;;5050045;28;20040;-72
2021/04/27 06:58:06;;;;;;;11.63;5.82;;;7.80;75.70;;;;;;5051373;28;20033;-72
2021/04/27 07:00:32;;;;;;;6.95;5.22;;;7.80;78.80;;;;;;5050333;28;20031;-72
2021/04/27 07:02:58;;;;;;;9.15;5.97;;;7.70;79.10;;;;;;5051368;28;20025;-72
2021/04/27 07:05:25;;;;;;;8.32;5.35;;;7.70;80.20;;;;;;5051295;28;20025;-72
2021/04/27 07:07:51;;;;;;;7.95;5.30;;;7.80;80.70;;;;;;5049853;28;20399;-72
2021/04/27 07:10:17;;;;;;;19.90;10.10;;;7.80;80.00;;;;;;5050200;28;20124;-72
2021/04/27 07:12:43;;;;;;;10.32;6.35;;;7.80;79.30;;;;;;5049885;28;20115;-72
2021/04/27 07:15:09;;;;;;;8.57;5.40;;;7.80;76.20;;;;;;5051301;28;20029;-72
2021/04/27 07:17:35;;;;;;;6.35;4.90;;;7.80;78.50;;;;;;5049857;28;20029;-72
2021/04/27 07:20:00;;;;;;;8.95;6.07;;;7.90;79.10;;;;;;5049842;28;20025;-73
2021/04/27 07:22:27;;;;;;;8.63;5.78;;;8.00;79.50;;;;;;5049909;28;20032;-72
2021/04/27 07:24:54;;;;;;;5.30;4.32;;;8.20;75.70;;;;;;5051259;28;20427;-72
2021/04/27 07:27:21;;;;;;;7.32;4.78;;;8.40;74.50;;;;;;5050253;28;20067;-72
2021/04/27 07:29:47;;;;;;;10.10;5.68;;;8.60;74.80;;;;;;5051176;28;20040;-73
2021/04/27 07:32:14;;;;;;;8.82;6.47;;;8.80;73.80;;;;;;5049625;28;20025;-72
2021/04/27 07:34:40;;;;;;;94.55;38.80;;;9.00;69.70;;;;;;5051134;28;20036;-72
2021/04/27 07:37:06;;;;;;;45.38;19.20;;;9.00;67.60;;;;;;5051353;28;20021;-73
2021/04/27 07:39:32;;;;;;;101.82;39.40;;;9.00;67.00;;;;;;5049525;28;20029;-73
2021/04/27 07:41:58;;;;;;;15.38;8.13;;;9.10;67.50;;;;;;5050962;28;20021;-73
2021/04/27 07:44:25;;;;;;;7.40;4.60;;;9.10;66.70;;;;;;5050983;28;20163;-73
2021/04/27 07:46:50;;;;;;;39.15;13.13;;;9.20;67.80;;;;;;5051137;28;20050;-73
2021/04/27 07:49:16;;;;;;;37.25;13.95;;;9.20;65.00;;;;;;5050826;28;20045;-73
2021/04/27 07:51:42;;;;;;;75.70;26.90;;;9.20;64.50;;;;;;5051425;28;20048;-73
2021/04/27 07:54:08;;;;;;;56.65;21.95;;;9.20;65.30;;;;;;5051465;28;20028;-73
2021/04/27 07:56:34;;;;;;;23.05;12.70;;;9.30;63.00;;;;;;5050905;28;20032;-72
2021/04/27 07:59:03;;;;;;;10.70;5.88;;;9.20;63.60;;;;;;5050982;28;20036;-73
2021/04/27 08:01:29;;;;;;;11.00;6.18;;;9.10;62.90;;;;;;5050893;28;20055;-72
2021/04/27 08:03:55;;;;;;;33.13;14.40;;;9.10;62.90;;;;;;5052457;28;20025;-73
2021/04/27 08:06:22;;;;;;;7.97;5.15;;;9.20;64.20;;;;;;5052429;28;20079;-73
2021/04/27 08:08:47;;;;;;;25.10;11.68;;;9.30;63.40;;;;;;5052296;28;20053;-73
2021/04/27 08:11:15;;;;;;;12.07;6.90;;;9.30;63.10;;;;;;5051932;28;20075;-73
2021/04/27 08:13:42;;;;;;;48.20;23.00;;;9.30;63.10;;;;;;5051286;28;20049;-73
2021/04/27 08:16:08;;;;;;;64.68;27.75;;;9.40;64.10;;;;;;5052568;28;20033;-73
2021/04/27 08:18:36;;;;;;;12.35;6.82;;;9.60;63.30;;;;;;5050320;28;20044;-73
2021/04/27 08:21:08;;;;;;;15.93;8.88;;;9.60;62.70;;;;;;5052219;28;20037;-73
2021/04/27 08:23:37;;;;;;;26.45;12.25;;;9.70;64.00;;;;;;5050560;28;20025;-73
2021/04/27 08:26:11;;;;;;;25.65;15.68;;;9.70;64.70;;;;;;5050912;28;20463;-73
2021/04/27 08:28:37;;;;;;;49.38;23.52;;;9.90;63.60;;;;;;5050414;28;20075;-74
2021/04/27 08:31:03;;;;;;;20.05;10.77;;;10.00;62.40;;;;;;5050799;28;20053;-71
2021/04/27 08:33:29;;;;;;;7.15;5.07;;;10.10;61.60;;;;;;5051143;28;20378;-70
2021/04/27 08:35:55;;;;;;;7.72;5.30;;;10.00;62.20;;;;;;5052045;28;20104;-71
2021/04/27 08:38:21;;;;;;;9.13;5.63;;;10.20;61.80;;;;;;5051919;28;20478;-70
2021/04/27 08:40:48;;;;;;;7.50;5.35;;;10.20;60.00;;;;;;5053652;28;20033;-71
2021/04/27 08:43:15;;;;;;;9.57;5.25;;;10.40;61.80;;;;;;5054347;28;20078;-70
2021/04/27 08:45:42;;;;;;;8.50;6.65;;;10.60;60.90;;;;;;5053818;28;20021;-70
2021/04/27 08:48:09;;;;;;;9.15;5.05;;;10.80;61.20;;;;;;5053883;28;20043;-70
2021/04/27 08:50:36;;;;;;;8.38;4.30;;;11.00;60.10;;;;;;5053886;28;20081;-70
2021/04/27 08:53:02;;;;;;;11.98;6.93;;;11.00;59.70;;;;;;5052526;28;20412;-70
2021/04/27 08:55:29;;;;;;;39.45;19.70;;;11.20;60.50;;;;;;5052898;28;20043;-70
2021/04/27 08:57:55;;;;;;;8.00;5.55;;;11.20;58.60;;;;;;5054041;28;20033;-70
2021/04/27 09:00:22;;;;;;;9.82;6.88;;;11.30;57.60;;;;;;5052475;28;20052;-71
2021/04/27 09:02:56;;;;;;;7.47;5.28;;;11.40;56.80;;;;;;5053792;28;20072;-70
2021/04/27 09:05:25;;;;;;;26.20;12.80;;;11.40;57.10;;;;;;5052574;28;20475;-71
2021/04/27 09:07:52;;;;;;;12.90;7.00;;;11.40;56.30;;;;;;5053451;28;20100;-72
2021/04/27 09:10:21;;;;;;;6.55;3.88;;;11.40;54.80;;;;;;5053396;28;20025;-71
2021/04/27 09:12:49;;;;;;;5.53;4.22;;;11.50;57.00;;;;;;5052254;28;20483;-71
2021/04/27 09:15:35;;;;;;;5.63;4.13;;;11.60;55.40;;;;;;5053028;28;20033;-71
2021/04/27 09:18:23;;;;;;;11.35;4.97;;;11.70;57.00;;;;;;5051886;28;20060;-72
2021/04/27 09:21:19;;;;;;;10.30;7.13;;;11.80;57.40;;;;;;5052157;28;20049;-71
2021/04/27 09:23:46;;;;;;;9.43;6.68;;;11.90;55.50;;;;;;5052488;28;20041;-72
2021/04/27 09:26:17;;;;;;;7.13;5.22;;;11.90;54.50;;;;;;5053166;28;20026;-71
2021/04/27 09:28:48;;;;;;;8.70;5.43;;;11.90;55.40;;;;;;5053076;28;20017;-72
2021/04/27 09:31:36;;;;;;;7.63;5.10;;;12.00;53.70;;;;;;5053370;28;20040;-71
2021/04/27 09:34:24;;;;;;;8.68;5.50;;;11.70;50.60;;;;;;5053325;28;20036;-71
2021/04/27 09:36:55;;;;;;;9.30;6.38;;;11.70;54.10;;;;;;5053062;28;20036;-71
2021/04/27 09:39:30;;;;;;;5.60;3.77;;;11.80;54.10;;;;;;5051689;28;20032;-71
2021/04/27 09:42:05;;;;;;;33.63;16.45;;;11.80;53.60;;;;;;5053520;28;20025;-71
2021/04/27 09:44:33;;;;;;;14.75;8.30;;;11.80;53.00;;;;;;5054375;28;20021;-71
2021/04/27 09:47:08;;;;;;;10.63;6.82;;;11.80;53.90;;;;;;5053113;28;20028;-71
2021/04/27 09:49:35;;;;;;;9.25;6.20;;;11.70;56.10;;;;;;5054046;28;20068;-71
2021/04/27 09:52:11;;;;;;;12.02;5.60;;;11.60;55.70;;;;;;5054492;28;20033;-71
2021/04/27 09:55:10;;;;;;;19.80;10.52;;;10.80;59.30;;;;;;5053442;28;20033;-72
2021/04/27 09:57:55;;;;;;;19.77;9.75;;;10.70;61.00;;;;;;5054290;28;20031;-72
2021/04/27 10:00:32;;;;;;;10.73;6.80;;;10.80;61.10;;;;;;5052733;28;20037;-72
2021/04/27 10:03:18;;;;;;;14.80;9.10;;;10.90;62.50;;;;;;5052905;28;20033;-72
2021/04/27 10:05:45;;;;;;;11.70;6.47;;;11.00;58.60;;;;;;5052537;28;20395;-73
2021/04/27 10:08:12;;;;;;;9.23;5.30;;;11.00;57.70;;;;;;5052964;28;20112;-72
2021/04/27 10:10:39;;;;;;;9.60;5.72;;;11.00;56.60;;;;;;5053790;28;20406;-71
2021/04/27 10:13:08;;;;;;;6.82;4.25;;;11.20;55.60;;;;;;5053598;28;20024;-71
2021/04/27 10:15:34;;;;;;;4.45;3.58;;;11.20;56.00;;;;;;5053022;28;20025;-71
2021/04/27 10:18:02;;;;;;;4.85;4.05;;;11.30;55.30;;;;;;5054428;28;20032;-71
2021/04/27 10:20:28;;;;;;;4.55;3.45;;;11.30;54.00;;;;;;5053090;28;20029;-71
2021/04/27 10:22:54;;;;;;;7.20;4.32;;;11.20;55.00;;;;;;5053492;28;20387;-71
2021/04/27 10:25:26;;;;;;;4.45;3.85;;;11.30;54.70;;;;;;5053526;28;20017;-71
2021/04/27 10:28:05;;;;;;;4.30;3.88;;;11.40;55.40;;;;;;5053493;28;20070;-71
2021/04/27 10:30:42;;;;;;;7.70;5.18;;;11.50;53.90;;;;;;5054689;28;20021;-76
2021/04/27 10:33:14;;;;;;;8.52;6.10;;;11.50;56.10;;;;;;5052758;28;20033;-72
2021/04/27 10:36:10;;;;;;;9.05;5.93;;;11.50;59.20;;;;;;5054549;28;20490;-75
2021/04/27 10:38:48;;;;;;;9.10;4.85;;;11.60;60.70;;;;;;5054026;28;20082;-73
2021/04/27 10:41:21;;;;;;;4.80;4.10;;;11.80;61.30;;;;;;5051812;28;20078;-73
2021/04/27 10:44:00;;;;;;;7.22;4.57;;;11.80;61.90;;;;;;5052764;28;20047;-73
2021/04/27 10:46:36;;;;;;;5.63;4.32;;;12.00;61.80;;;;;;5051173;28;20033;-74
2021/04/27 10:49:09;;;;;;;6.55;4.00;;;12.00;60.00;;;;;;5051303;28;20068;-72
2021/04/27 10:51:40;;;;;;;4.45;3.45;;;12.10;57.20;;;;;;5052311;28;20029;-72
2021/04/27 10:54:17;;;;;;;5.80;4.30;;;12.20;58.50;;;;;;5084880;28;20383;-74
2021/04/27 10:56:52;;;;;;;19.58;10.30;;;12.20;55.00;;;;;;5051495;28;20021;-72
2021/04/27 10:59:47;;;;;;;16.13;8.55;;;12.40;56.00;;;;;;5053050;28;20021;-72
2021/04/27 11:02:21;;;;;;;12.65;5.70;;;12.40;55.10;;;;;;5049752;28;20463;-73
2021/04/27 11:04:48;;;;;;;9.20;5.00;;;12.20;57.20;;;;;;5052002;28;20032;-73
2021/04/27 11:07:19;;;;;;;5.80;4.72;;;12.20;58.20;;;;;;5052900;28;20025;-73
2021/04/27 11:10:06;;;;;;;6.20;4.88;;;12.10;58.70;;;;;;5052940;28;20031;-82
2021/04/27 11:12:46;;;;;;;22.85;11.20;;;11.90;58.90;;;;;;5052183;28;20036;-75
2021/04/27 11:15:18;;;;;;;13.88;7.90;;;12.00;57.20;;;;;;5053478;28;20043;-75
2021/04/27 11:18:06;;;;;;;16.73;7.65;;;11.90;57.00;;;;;;5052310;28;20112;-76
2021/04/27 11:20:53;;;;;;;8.45;5.15;;;11.80;59.10;;;;;;5053273;28;20055;-76
2021/04/27 11:23:52;;;;;;;6.50;4.70;;;11.80;61.00;;;;;;5051898;28;20028;-75
2021/04/27 11:26:33;;;;;;;7.18;4.57;;;11.80;62.10;;;;;;5053557;28;20017;-76
2021/04/27 11:29:30;;;;;;;5.75;4.57;;;11.80;62.10;;;;;;5053743;28;20348;-76
2021/04/27 11:32:03;;;;;;;8.05;5.03;;;11.80;61.30;;;;;;5052217;28;20857;-76
2021/04/27 11:34:30;;;;;;;9.60;4.72;;;11.80;62.10;;;;;;5051907;28;20058;-76
2021/04/27 11:36:59;;;;;;;8.48;5.00;;;11.80;62.40;;;;;;5051510;28;20494;-76
2021/04/27 11:39:30;;;;;;;6.65;4.55;;;11.60;62.50;;;;;;5053353;28;20029;-76
2021/04/27 11:42:03;;;;;;;7.22;4.55;;;11.60;62.40;;;;;;5036421;28;20371;-75
2021/04/27 11:44:37;;;;;;;11.68;7.30;;;11.60;62.00;;;;;;5053271;28;20076;-75
2021/04/27 11:47:15;;;;;;;12.52;6.88;;;11.40;60.20;;;;;;5052397;28;20467;-76
2021/04/27 11:49:47;;;;;;;10.40;5.80;;;11.00;63.40;;;;;;5051990;28;20140;-76
2021/04/27 11:52:14;;;;;;;10.63;8.02;;;10.80;64.60;;;;;;5053457;28;20025;-76
2021/04/27 11:54:41;;;;;;;7.47;5.38;;;10.50;66.40;;;;;;5051922;28;20032;-76
2021/04/27 11:57:17;;;;;;;7.53;5.90;;;10.20;69.90;;;;;;5053324;28;20021;-76
2021/04/27 11:59:43;;;;;;;8.48;5.30;;;10.00;73.00;;;;;;5052833;28;20472;-76
2021/04/27 12:02:13;;;;;;;9.32;6.05;;;10.00;73.10;;;;;;5053178;28;20029;-75
2021/04/27 12:04:40;;;;;;;8.73;6.25;;;9.80;76.40;;;;;;5053481;28;20088;-74
2021/04/27 12:07:05;;;;;;;9.35;7.22;;;9.70;78.20;;;;;;5053410;28;20036;-75
2021/04/27 12:09:44;;;;;;;12.68;8.52;;;9.50;80.80;;;;;;5052887;28;20033;-75
2021/04/27 12:12:13;;;;;;;18.92;11.80;;;9.30;83.40;;;;;;5054077;28;20040;-75
2021/04/27 12:14:56;;;;;;;12.77;9.27;;;9.00;84.40;;;;;;5055928;28;20036;-75
2021/04/27 12:17:29;;;;;;;16.83;10.43;;;8.90;84.60;;;;;;5056889;28;20021;-75
2021/04/27 12:20:16;;;;;;;20.77;11.95;;;8.90;84.70;;;;;;5055685;28;20487;-75
2021/04/27 12:22:56;;;;;;;17.17;11.05;;;8.60;85.00;;;;;;5056264;28;20025;-75
2021/04/27 12:25:27;;;;;;;18.70;12.57;;;8.60;84.30;;;;;;5039412;28;20029;-75
2021/04/27 12:28:04;;;;;;;12.70;9.10;;;8.60;87.00;;;;;;5089401;28;20033;-77
2021/04/27 12:30:34;;;;;;;9.55;7.07;;;8.40;88.90;;;;;;5056777;28;20029;-76
2021/04/27 12:33:04;;;;;;;10.15;7.75;;;8.40;86.10;;;;;;5055899;28;20071;-75
2021/04/27 12:35:33;;;;;;;8.38;7.18;;;8.30;87.10;;;;;;5057245;28;20033;-75
2021/04/27 12:37:58;;;;;;;15.30;9.40;;;8.20;86.70;;;;;;5056788;28;20036;-75
2021/04/27 12:40:27;;;;;;;15.05;9.38;;;8.20;86.20;;;;;;5055808;28;20354;-75
2021/04/27 12:43:05;;;;;;;19.13;12.55;;;8.10;86.00;;;;;;5056108;28;20021;-75
2021/04/27 12:45:51;;;;;;;13.43;10.13;;;8.10;86.30;;;;;;5056716;28;20032;-75
2021/04/27 12:48:19;;;;;;;19.75;10.10;;;8.10;86.60;;;;;;5056786;28;20029;-75
2021/04/27 12:51:03;;;;;;;12.32;8.65;;;8.10;88.60;;;;;;5055696;28;20367;-75
2021/04/27 12:53:38;;;;;;;22.75;15.13;;;8.10;88.50;;;;;;5056634;28;20021;-75